This is the latest recevied weather packets stored in our database for station/object CT1ETE-13. If no packets are shown the sender has not sent any weather packets the latest 10 day(s).
| Time | Temp. | Humidity | Pressure | Rain* | Wind** | Luminosity | Snow |
|---|---|---|---|---|---|---|---|
| 1777559416 | 16.11° C | 76% | 1017.4 hPa | 0 mm | - | - | - |
| 1777558517 | 16.67° C | 71% | 1017.4 hPa | 0 mm | - | - | - |
| 1777557678 | 16.67° C | 70% | 1017.3 hPa | 0 mm | - | - | - |
| 1777556717 | 17.22° C | 69% | 1017.2 hPa | 0 mm | - | - | - |
| 1777555817 | 17.22° C | 67% | 1017.1 hPa | 0 mm | - | - | - |
| 1777554917 | 17.22° C | 67% | 1017.1 hPa | 0 mm | - | - | - |
| 1777554019 | 17.22° C | 67% | 1017 hPa | 0 mm | - | - | - |
| 1777553116 | 17.22° C | 67% | 1016.9 hPa | 0 mm | - | - | - |
| 1777552217 | 16.67° C | 71% | 1017 hPa | 0 mm | - | - | - |
| 1777551317 | 16.11° C | 73% | 1017 hPa | 0 mm | - | - | - |
| 1777550417 | 16.11° C | 73% | 1017 hPa | 0 mm | - | - | - |
| 1777549520 | 16.67° C | 73% | 1017 hPa | 0 mm | - | - | - |
| 1777548611 | 16.67° C | 73% | 1017 hPa | 0 mm | - | - | - |
| 1777547710 | 16.11° C | 76% | 1017.1 hPa | 0 mm | - | - | - |
| 1777546811 | 15.56° C | 77% | 1017 hPa | 0 mm | - | - | - |
| 1777545910 | 15.56° C | 79% | 1017 hPa | 0 mm | - | - | - |
| 1777545008 | 15.56° C | 79% | 1016.9 hPa | 0 mm | - | - | - |
| 1777544107 | 15.56° C | 78% | 1016.8 hPa | 0 mm | - | - | - |
| 1777543204 | 15.56° C | 79% | 1016.7 hPa | 0 mm | - | - | - |
| 1777542304 | 15.56° C | 80% | 1016.5 hPa | 0 mm | - | - | - |
| 1777541404 | 15° C | 81% | 1016.2 hPa | 0 mm | - | - | - |
| 1777540503 | 15° C | 81% | 1016.1 hPa | 0 mm | - | - | - |
| 1777539603 | 15° C | 81% | 1016 hPa | 0 mm | - | - | - |
| 1777538702 | 15° C | 82% | 1015.8 hPa | 0 mm | - | - | - |
| 1777537797 | 14.44° C | 84% | 1015.8 hPa | 0 mm | - | - | - |
* Rain latest hour (hover to see other rain measurements)
** Current wind speed in m/s (hover to see current wind gust speed)